Time;durP1;ratioP1;P1;durP2;ratioP2;P2;SDS_P1;SDS_P2;PMS_P1;PMS_P2;Temp;Humidity;BMP_temperature;BMP_pressure;BME280_temperature;BME280_humidity;BME280_pressure;Samples;Min_cycle;Max_cycle;Signal;HPM_P1;HPM_P2
2021/07/27 00:02:19;;;;;;;3.13;1.20;;;18.90;60.00;;;;;;5106021;28;20409;-54
2021/07/27 00:04:47;;;;;;;3.15;1.23;;;19.20;59.50;;;;;;5099540;28;20097;-53
2021/07/27 00:07:14;;;;;;;2.65;1.23;;;19.30;59.10;;;;;;5102571;28;20032;-62
2021/07/27 00:09:41;;;;;;;6.63;1.58;;;19.30;58.90;;;;;;5111603;28;20036;-59
2021/07/27 00:12:09;;;;;;;4.75;1.15;;;19.60;58.60;;;;;;5110832;28;20062;-62
2021/07/27 00:14:36;;;;;;;4.30;1.40;;;19.70;57.90;;;;;;5093281;28;20076;-55
2021/07/27 00:17:04;;;;;;;5.07;1.38;;;19.50;58.20;;;;;;5093023;28;20023;-59
2021/07/27 00:19:31;;;;;;;4.22;1.27;;;19.60;57.60;;;;;;5093278;28;20023;-53
2021/07/27 00:22:00;;;;;;;3.50;1.40;;;19.40;58.40;;;;;;5090877;28;20044;-51
2021/07/27 00:24:27;;;;;;;3.40;1.50;;;19.40;58.20;;;;;;5100645;28;20028;-61
2021/07/27 00:26:55;;;;;;;5.90;1.30;;;19.50;57.70;;;;;;5105354;28;20152;-57
2021/07/27 00:29:23;;;;;;;4.72;1.30;;;19.60;58.00;;;;;;5105754;28;20054;-59
2021/07/27 00:31:51;;;;;;;3.75;1.48;;;19.50;57.90;;;;;;5105806;28;20027;-61
2021/07/27 00:34:18;;;;;;;2.30;1.10;;;19.60;57.20;;;;;;5105828;28;20050;-52
2021/07/27 00:36:45;;;;;;;2.58;1.00;;;19.60;58.10;;;;;;5110539;28;20423;-59
2021/07/27 00:39:13;;;;;;;5.03;1.80;;;19.60;57.50;;;;;;5110052;28;20114;-56
2021/07/27 00:41:40;;;;;;;2.58;0.95;;;19.80;57.50;;;;;;5110206;28;20031;-53
2021/07/27 00:44:07;;;;;;;2.92;1.40;;;19.90;57.70;;;;;;5092431;28;20076;-54
2021/07/27 00:46:35;;;;;;;2.10;1.05;;;19.90;57.90;;;;;;5110437;28;20032;-57
2021/07/27 00:49:03;;;;;;;4.90;1.42;;;19.90;57.60;;;;;;5109583;28;20024;-55
2021/07/27 00:51:30;;;;;;;3.20;1.38;;;20.10;56.90;;;;;;5092198;28;20122;-57
2021/07/27 00:53:58;;;;;;;4.65;1.27;;;20.20;57.50;;;;;;5109625;28;20781;-60
2021/07/27 00:56:26;;;;;;;3.13;1.20;;;20.10;56.50;;;;;;5110156;28;20036;-60
2021/07/27 00:58:54;;;;;;;5.10;1.63;;;20.10;57.60;;;;;;5110142;28;20027;-62
2021/07/27 01:01:21;;;;;;;3.85;1.20;;;20.10;57.20;;;;;;5110018;28;20436;-56
2021/07/27 01:03:49;;;;;;;13.02;1.40;;;20.20;57.30;;;;;;5109719;28;20497;-60
2021/07/27 01:06:19;;;;;;;2.80;1.30;;;20.20;56.40;;;;;;5109698;28;20023;-57
2021/07/27 01:08:47;;;;;;;4.47;1.45;;;20.30;56.50;;;;;;5109719;28;20051;-58
2021/07/27 01:11:25;;;;;;;3.50;1.48;;;20.40;56.50;;;;;;5109605;28;20038;-60
2021/07/27 01:13:52;;;;;;;5.60;1.80;;;20.50;54.60;;;;;;5109704;28;20030;-60
2021/07/27 01:16:33;;;;;;;5.57;1.67;;;20.50;55.90;;;;;;5109872;28;20023;-55
2021/07/27 01:38:33;;;;;;;6.10;1.20;;;20.90;55.20;;;;;;5097579;28;20058;-59
2021/07/27 01:42:03;;;;;;;2.80;1.15;;;20.90;54.90;;;;;;5097846;28;20040;-57
2021/07/27 01:43:50;;;;;;;3.22;1.00;;;20.90;55.30;;;;;;5110321;28;20035;-58
2021/07/27 01:46:18;;;;;;;5.05;1.55;;;20.90;55.70;;;;;;5109054;28;20036;-55
2021/07/27 01:48:45;;;;;;;7.18;1.50;;;20.80;55.90;;;;;;5093859;28;20468;-60
2021/07/27 01:51:16;;;;;;;7.53;1.65;;;20.80;55.40;;;;;;5099668;28;20492;-60
2021/07/27 01:53:48;;;;;;;3.40;1.17;;;20.80;54.20;;;;;;5095124;28;20035;-62
2021/07/27 01:56:20;;;;;;;3.58;1.10;;;20.70;55.60;;;;;;5101430;28;20024;-59
2021/07/27 01:58:49;;;;;;;1.38;0.73;;;20.70;56.20;;;;;;5095212;28;20032;-60
2021/07/27 02:01:18;;;;;;;4.63;1.40;;;20.50;56.60;;;;;;5104117;28;20051;-60
2021/07/27 02:03:46;;;;;;;3.60;1.20;;;20.50;56.90;;;;;;5099586;28;20106;-61
2021/07/27 02:06:15;;;;;;;2.30;1.17;;;20.40;57.30;;;;;;5097589;28;20024;-62
2021/07/27 02:08:42;;;;;;;3.50;1.35;;;20.30;57.30;;;;;;5103037;28;20067;-57
2021/07/27 02:11:12;;;;;;;4.53;1.45;;;20.30;57.30;;;;;;5101702;28;20432;-59
2021/07/27 02:13:53;;;;;;;3.33;1.63;;;20.30;57.20;;;;;;5108039;28;20114;-59
2021/07/27 02:16:21;;;;;;;2.85;1.40;;;20.40;57.40;;;;;;5081913;28;20689;-61
2021/07/27 02:18:48;;;;;;;2.67;1.05;;;20.30;56.80;;;;;;5099774;28;20078;-59
2021/07/27 02:21:16;;;;;;;4.68;1.55;;;20.20;57.80;;;;;;5081321;28;20032;-60
2021/07/27 02:23:43;;;;;;;3.65;1.45;;;20.30;57.20;;;;;;5103654;28;20501;-59
2021/07/27 02:26:10;;;;;;;3.28;1.13;;;20.30;57.50;;;;;;5100982;28;20081;-62
2021/07/27 02:28:38;;;;;;;3.92;1.17;;;20.50;57.70;;;;;;5098870;28;20048;-61
2021/07/27 02:31:09;;;;;;;5.22;1.38;;;20.50;57.40;;;;;;5099339;28;20085;-61
2021/07/27 02:33:37;;;;;;;3.40;1.15;;;20.70;56.20;;;;;;5085552;28;20100;-62
2021/07/27 02:36:04;;;;;;;4.55;1.15;;;20.70;56.60;;;;;;5096028;28;20107;-59
2021/07/27 02:38:32;;;;;;;5.05;1.42;;;20.80;55.90;;;;;;5096011;28;20433;-59
2021/07/27 02:41:01;;;;;;;4.22;1.40;;;20.90;56.10;;;;;;5095313;28;20123;-62
2021/07/27 02:43:31;;;;;;;3.40;1.02;;;21.00;55.50;;;;;;5099769;28;20148;-62
2021/07/27 02:45:59;;;;;;;2.97;1.40;;;21.10;55.20;;;;;;5082801;28;20032;-59
2021/07/27 02:48:26;;;;;;;3.58;1.25;;;21.20;55.50;;;;;;5107142;28;20024;-64
2021/07/27 02:51:01;;;;;;;4.80;1.60;;;21.30;54.60;;;;;;5098583;28;20038;-60
2021/07/27 02:53:31;;;;;;;3.50;1.42;;;21.40;54.70;;;;;;5085898;28;20035;-63
2021/07/27 02:56:02;;;;;;;3.13;1.20;;;21.30;54.10;;;;;;5098572;28;20024;-63
2021/07/27 02:58:33;;;;;;;3.85;1.60;;;21.30;54.10;;;;;;5103293;28;20534;-57
2021/07/27 03:01:02;;;;;;;4.53;2.13;;;21.40;54.50;;;;;;5100915;28;20049;-60
2021/07/27 03:03:30;;;;;;;3.97;1.50;;;21.30;55.00;;;;;;5102993;28;20069;-59
2021/07/27 03:06:01;;;;;;;3.15;1.00;;;21.30;54.70;;;;;;5097828;28;20028;-62
2021/07/27 03:08:47;;;;;;;3.47;1.33;;;21.30;54.80;;;;;;5093387;28;20024;-58
2021/07/27 03:11:15;;;;;;;3.17;1.13;;;21.00;55.40;;;;;;5081269;28;20093;-60
2021/07/27 03:13:47;;;;;;;3.75;1.30;;;21.00;55.40;;;;;;5103086;28;20024;-55
2021/07/27 03:16:23;;;;;;;3.85;1.35;;;20.90;55.80;;;;;;5099481;28;20482;-59
2021/07/27 03:18:56;;;;;;;5.60;1.17;;;20.70;56.20;;;;;;5102697;28;20455;-64
2021/07/27 03:21:27;;;;;;;5.28;1.38;;;20.60;56.20;;;;;;5097671;28;20479;-63
2021/07/27 03:23:55;;;;;;;4.30;1.73;;;20.60;56.00;;;;;;5100959;28;20110;-57
2021/07/27 03:26:23;;;;;;;3.72;1.13;;;20.60;55.40;;;;;;5098656;28;20081;-63
2021/07/27 03:28:51;;;;;;;7.50;1.50;;;20.70;56.70;;;;;;5098373;28;20441;-62
2021/07/27 03:31:20;;;;;;;4.28;1.50;;;20.60;56.50;;;;;;5101785;28;20153;-62
2021/07/27 03:33:48;;;;;;;3.72;1.27;;;20.60;57.10;;;;;;5098452;28;20338;-67
2021/07/27 03:36:16;;;;;;;4.80;1.25;;;20.60;57.10;;;;;;5097086;28;20020;-55
2021/07/27 03:38:43;;;;;;;3.30;1.48;;;20.60;57.40;;;;;;5092661;28;20204;-54
2021/07/27 03:41:12;;;;;;;3.58;1.48;;;20.60;56.60;;;;;;5098124;28;20044;-57
2021/07/27 03:43:40;;;;;;;4.25;1.52;;;20.70;56.80;;;;;;5079851;28;20451;-63
2021/07/27 03:46:11;;;;;;;4.40;1.25;;;20.70;56.30;;;;;;5084779;28;20050;-62
2021/07/27 03:48:38;;;;;;;5.57;1.70;;;20.60;56.40;;;;;;5104272;28;20020;-60
2021/07/27 03:51:05;;;;;;;4.82;1.40;;;20.80;54.10;;;;;;5102120;28;20033;-60
2021/07/27 03:53:33;;;;;;;5.28;1.58;;;20.70;56.60;;;;;;5098539;28;20118;-58
2021/07/27 03:56:01;;;;;;;2.63;1.45;;;20.70;56.50;;;;;;5100369;28;20053;-59
2021/07/27 03:58:32;;;;;;;4.80;1.67;;;20.70;56.00;;;;;;5098606;28;20032;-65
2021/07/27 04:01:07;;;;;;;5.05;1.73;;;20.80;56.90;;;;;;5104343;28;20070;-70
2021/07/27 04:03:35;;;;;;;5.78;1.85;;;21.00;55.10;;;;;;5099131;28;20160;-52
2021/07/27 04:06:02;;;;;;;3.78;1.25;;;21.20;55.90;;;;;;5099258;28;20028;-62
2021/07/27 04:08:33;;;;;;;3.63;1.67;;;21.20;55.50;;;;;;5101775;28;20355;-56
2021/07/27 04:11:02;;;;;;;4.15;1.55;;;21.30;55.40;;;;;;5098946;28;20035;-59
2021/07/27 04:13:32;;;;;;;6.40;1.88;;;21.30;54.00;;;;;;5093440;28;20028;-60
2021/07/27 04:16:01;;;;;;;3.70;1.30;;;21.50;52.90;;;;;;5090879;28;20043;-61
2021/07/27 04:18:29;;;;;;;6.90;2.03;;;21.50;54.30;;;;;;5090914;28;20051;-62
2021/07/27 04:20:59;;;;;;;3.85;1.33;;;21.50;53.20;;;;;;5089055;28;20549;-62
2021/07/27 04:23:27;;;;;;;4.18;1.33;;;21.40;54.60;;;;;;5087260;28;20035;-58
2021/07/27 04:25:57;;;;;;;3.42;1.02;;;21.50;54.50;;;;;;5090143;28;20028;-57
2021/07/27 04:28:24;;;;;;;5.13;1.90;;;21.50;53.40;;;;;;5090336;28;20080;-61
2021/07/27 04:30:52;;;;;;;4.78;1.45;;;21.50;52.60;;;;;;5090452;28;20413;-60
2021/07/27 04:33:19;;;;;;;5.03;1.38;;;21.40;54.90;;;;;;5071969;28;20028;-60
2021/07/27 04:35:47;;;;;;;3.90;1.40;;;21.50;54.70;;;;;;5090698;28;20028;-64
2021/07/27 04:38:14;;;;;;;5.20;1.85;;;21.50;54.70;;;;;;5090530;28;20052;-58
2021/07/27 04:40:41;;;;;;;5.70;1.50;;;21.80;52.30;;;;;;5088885;28;20655;-60
2021/07/27 04:43:09;;;;;;;5.43;1.75;;;21.80;52.20;;;;;;5089419;28;20131;-62
2021/07/27 04:45:39;;;;;;;4.38;1.77;;;21.70;52.50;;;;;;5072245;28;20028;-58
2021/07/27 04:48:07;;;;;;;6.35;1.70;;;21.80;53.70;;;;;;5090351;28;20032;-60
2021/07/27 04:50:37;;;;;;;4.22;1.85;;;21.70;53.30;;;;;;5090809;28;20055;-60
2021/07/27 04:53:10;;;;;;;4.43;1.60;;;21.70;53.90;;;;;;5090589;28;20020;-56
2021/07/27 04:55:38;;;;;;;5.15;1.63;;;21.60;53.90;;;;;;5090236;28;20042;-56
2021/07/27 04:58:06;;;;;;;3.70;1.25;;;21.50;53.90;;;;;;5090562;28;20054;-57
2021/07/27 05:00:33;;;;;;;4.43;1.63;;;21.40;54.30;;;;;;5090851;28;20063;-59
2021/07/27 05:03:01;;;;;;;4.97;1.58;;;21.50;52.90;;;;;;5090629;28;20070;-58
2021/07/27 05:05:28;;;;;;;3.55;1.27;;;21.70;53.90;;;;;;5090024;28;20088;-59
2021/07/27 05:07:56;;;;;;;3.95;1.55;;;21.60;53.90;;;;;;5089383;28;20024;-57
2021/07/27 05:10:23;;;;;;;3.78;1.20;;;21.70;53.70;;;;;;5090008;28;20085;-61
2021/07/27 05:12:51;;;;;;;5.55;1.55;;;21.70;52.50;;;;;;5089866;28;20089;-60
2021/07/27 05:15:20;;;;;;;3.72;1.38;;;21.80;52.30;;;;;;5089990;28;20112;-59
2021/07/27 05:17:54;;;;;;;3.30;1.20;;;21.80;53.20;;;;;;5084744;28;20051;-54
2021/07/27 05:20:22;;;;;;;3.97;1.33;;;21.80;53.30;;;;;;5096631;28;20499;-60
2021/07/27 05:22:49;;;;;;;4.60;1.67;;;21.90;53.40;;;;;;5097992;28;20031;-57
2021/07/27 05:25:20;;;;;;;4.53;1.30;;;21.90;53.50;;;;;;5074385;28;20542;-55
2021/07/27 05:27:47;;;;;;;4.15;1.48;;;21.90;53.70;;;;;;5098204;28;20492;-60
2021/07/27 05:30:16;;;;;;;5.40;1.33;;;21.80;53.60;;;;;;5099068;28;20417;-59
2021/07/27 05:32:44;;;;;;;3.42;1.27;;;22.00;53.10;;;;;;5100095;28;20486;-60
2021/07/27 05:35:12;;;;;;;4.60;1.58;;;22.00;52.50;;;;;;5098295;28;20055;-61
2021/07/27 05:37:44;;;;;;;3.42;1.25;;;22.00;52.40;;;;;;5096092;28;20557;-61
2021/07/27 05:40:12;;;;;;;4.82;1.60;;;22.00;52.60;;;;;;5083890;28;20462;-58
2021/07/27 05:42:39;;;;;;;3.83;1.30;;;22.20;53.00;;;;;;5098283;28;20043;-63
2021/07/27 05:45:07;;;;;;;4.32;1.85;;;22.20;51.70;;;;;;5098439;28;20074;-61
2021/07/27 05:47:34;;;;;;;3.95;1.20;;;22.20;52.40;;;;;;5096588;28;20020;-62
2021/07/27 05:50:03;;;;;;;2.83;1.13;;;22.10;52.70;;;;;;5096118;28;20114;-60
2021/07/27 05:52:31;;;;;;;3.78;1.40;;;21.90;52.80;;;;;;5082206;28;20489;-60
2021/07/27 05:54:58;;;;;;;3.13;1.35;;;21.90;52.70;;;;;;5097787;28;20012;-60
2021/07/27 05:57:26;;;;;;;5.20;1.30;;;21.80;52.50;;;;;;5100198;28;20028;-64
2021/07/27 05:59:54;;;;;;;2.85;1.35;;;21.60;52.80;;;;;;5101677;28;20024;-58
2021/07/27 06:02:22;;;;;;;3.65;1.63;;;21.40;52.30;;;;;;5093402;28;20032;-58
2021/07/27 06:04:50;;;;;;;3.70;1.15;;;21.30;53.40;;;;;;5100150;28;20059;-59
2021/07/27 06:07:17;;;;;;;4.88;1.38;;;21.10;53.80;;;;;;5100381;28;20035;-56
2021/07/27 06:09:44;;;;;;;3.15;1.52;;;20.80;54.80;;;;;;5091402;28;20111;-55
2021/07/27 06:12:12;;;;;;;5.80;1.80;;;20.60;55.30;;;;;;5100752;28;20031;-56
2021/07/27 06:14:40;;;;;;;2.83;1.27;;;20.40;55.90;;;;;;5098570;28;20394;-59
2021/07/27 06:17:10;;;;;;;3.08;1.00;;;20.20;56.50;;;;;;5104928;28;20027;-58
2021/07/27 06:19:37;;;;;;;4.50;1.40;;;19.90;57.50;;;;;;5090669;28;20034;-58
2021/07/27 06:22:05;;;;;;;5.07;1.60;;;19.80;58.00;;;;;;5109344;28;20553;-63
2021/07/27 06:24:32;;;;;;;5.15;1.67;;;19.70;56.90;;;;;;5109365;28;20035;-61
2021/07/27 06:26:59;;;;;;;2.70;1.25;;;19.60;58.10;;;;;;5090741;28;20042;-60
2021/07/27 06:29:27;;;;;;;5.22;1.40;;;19.40;59.40;;;;;;5109111;28;20044;-58
2021/07/27 06:31:54;;;;;;;4.20;1.00;;;19.30;59.10;;;;;;5108575;28;20108;-55
2021/07/27 06:34:21;;;;;;;6.68;1.95;;;19.20;59.80;;;;;;5109341;28;20036;-54
2021/07/27 06:36:49;;;;;;;3.22;1.60;;;19.20;59.40;;;;;;5109238;28;20024;-57
2021/07/27 06:39:17;;;;;;;3.50;1.27;;;19.10;60.00;;;;;;5108932;28;20042;-56
2021/07/27 06:41:45;;;;;;;3.92;1.52;;;19.10;59.00;;;;;;5108509;28;20122;-55
2021/07/27 06:44:12;;;;;;;5.78;1.45;;;19.10;60.40;;;;;;5108647;28;20031;-55
2021/07/27 06:46:39;;;;;;;3.40;1.20;;;18.90;61.20;;;;;;5111621;28;20110;-59
2021/07/27 06:49:07;;;;;;;2.80;1.38;;;18.90;60.30;;;;;;5113359;28;20023;-64
2021/07/27 06:51:34;;;;;;;6.63;1.20;;;18.90;60.70;;;;;;5113362;28;20031;-67
2021/07/27 06:54:02;;;;;;;3.20;1.33;;;18.80;61.20;;;;;;5112966;28;20031;-64
2021/07/27 06:56:29;;;;;;;3.92;1.38;;;18.70;61.10;;;;;;5112925;28;20028;-62
2021/07/27 06:58:56;;;;;;;2.35;1.25;;;18.70;60.20;;;;;;5112772;28;20039;-62
2021/07/27 07:01:24;;;;;;;4.47;2.00;;;18.70;61.90;;;;;;5112064;28;20044;-64
2021/07/27 07:03:51;;;;;;;4.65;1.52;;;18.70;61.50;;;;;;5112456;28;20034;-62
2021/07/27 07:06:18;;;;;;;4.65;2.13;;;18.60;61.90;;;;;;5112044;28;20450;-60
2021/07/27 07:08:47;;;;;;;7.40;2.65;;;18.60;60.20;;;;;;5111841;28;20020;-58
2021/07/27 07:11:14;;;;;;;4.35;1.92;;;18.50;62.20;;;;;;5112218;28;20581;-61
2021/07/27 07:13:43;;;;;;;7.28;2.40;;;18.50;62.50;;;;;;5112076;28;20506;-61
2021/07/27 07:16:12;;;;;;;7.32;2.30;;;18.40;62.20;;;;;;5111246;28;20066;-58
2021/07/27 07:18:40;;;;;;;6.05;2.72;;;18.40;61.90;;;;;;5093905;28;20027;-57
2021/07/27 07:21:08;;;;;;;6.38;2.53;;;18.40;62.90;;;;;;5112131;28;20039;-61
2021/07/27 07:23:36;;;;;;;6.60;2.30;;;18.30;62.70;;;;;;5112150;28;20031;-54
2021/07/27 07:26:05;;;;;;;5.68;2.33;;;18.30;63.10;;;;;;5111889;28;20080;-61
2021/07/27 07:28:33;;;;;;;6.65;2.13;;;18.20;63.80;;;;;;5111841;28;20128;-57
2021/07/27 07:31:01;;;;;;;5.95;2.45;;;18.10;63.00;;;;;;5111651;28;20450;-59
2021/07/27 07:33:29;;;;;;;7.22;2.53;;;18.10;62.70;;;;;;5112350;28;20100;-61
2021/07/27 07:35:56;;;;;;;5.18;2.45;;;18.10;64.10;;;;;;5111940;28;20020;-60
2021/07/27 07:38:24;;;;;;;5.55;2.70;;;18.10;64.20;;;;;;5111774;28;20770;-61
2021/07/27 07:40:51;;;;;;;6.53;2.55;;;18.00;64.70;;;;;;5111931;28;20442;-62
2021/07/27 07:43:18;;;;;;;9.93;2.30;;;17.90;65.00;;;;;;5111657;28;20069;-58
2021/07/27 07:45:46;;;;;;;6.15;2.42;;;17.90;64.60;;;;;;5111668;28;20028;-61
2021/07/27 07:48:13;;;;;;;4.20;1.90;;;17.90;65.10;;;;;;5111670;28;20031;-56
2021/07/27 07:50:40;;;;;;;7.53;2.88;;;17.80;65.10;;;;;;5112158;28;20042;-59
2021/07/27 07:53:07;;;;;;;6.55;2.70;;;17.80;65.10;;;;;;5111797;28;20062;-60
2021/07/27 07:55:35;;;;;;;7.70;2.55;;;17.80;65.60;;;;;;5111507;28;20038;-56
2021/07/27 07:58:02;;;;;;;6.38;2.60;;;17.80;66.00;;;;;;5111043;28;20059;-59
2021/07/27 08:00:30;;;;;;;9.05;2.63;;;17.80;66.10;;;;;;5112334;28;20049;-58
2021/07/27 08:03:03;;;;;;;7.22;2.25;;;17.70;66.20;;;;;;5093205;28;20036;-61
2021/07/27 08:05:31;;;;;;;8.45;2.60;;;17.70;66.60;;;;;;5111617;28;20032;-66
2021/07/27 08:07:58;;;;;;;5.78;2.45;;;17.60;66.80;;;;;;5111171;28;20425;-60
2021/07/27 08:10:26;;;;;;;11.57;2.88;;;17.60;67.00;;;;;;5111445;28;20051;-55
2021/07/27 08:12:53;;;;;;;5.78;2.40;;;17.60;66.80;;;;;;5110879;28;20031;-62
2021/07/27 08:15:26;;;;;;;7.57;2.45;;;17.60;67.80;;;;;;5111013;28;20027;-59
2021/07/27 08:17:54;;;;;;;6.70;2.45;;;17.60;67.20;;;;;;5110720;28;20059;-56
2021/07/27 08:20:22;;;;;;;6.55;2.20;;;17.50;67.30;;;;;;5110916;28;20039;-57
2021/07/27 08:22:49;;;;;;;4.22;1.98;;;17.50;67.90;;;;;;5111176;28;20169;-63
2021/07/27 08:25:18;;;;;;;7.85;2.35;;;17.50;67.90;;;;;;5110744;28;20080;-61
2021/07/27 08:27:46;;;;;;;9.10;2.33;;;17.50;67.20;;;;;;5110262;28;20120;-61
2021/07/27 08:30:15;;;;;;;5.05;1.90;;;17.50;67.60;;;;;;5110666;28;20034;-61
2021/07/27 08:32:50;;;;;;;8.23;2.40;;;17.50;68.70;;;;;;5109967;28;20030;-60
2021/07/27 08:35:20;;;;;;;8.75;2.80;;;17.50;68.50;;;;;;5111013;28;20027;-63
2021/07/27 08:37:47;;;;;;;6.80;1.77;;;17.50;68.50;;;;;;5092619;28;20118;-65
2021/07/27 08:40:19;;;;;;;5.70;2.20;;;17.50;68.40;;;;;;5110675;28;20063;-62
2021/07/27 08:42:47;;;;;;;6.25;1.80;;;17.50;67.80;;;;;;5111050;28;20048;-65
2021/07/27 08:45:15;;;;;;;5.10;2.40;;;17.40;67.70;;;;;;5110918;28;20159;-66
2021/07/27 08:47:47;;;;;;;4.93;1.85;;;17.40;68.60;;;;;;5110646;28;20434;-65
2021/07/27 08:50:15;;;;;;;6.40;1.75;;;17.40;68.80;;;;;;5110715;28;20114;-61
2021/07/27 08:52:43;;;;;;;8.95;3.90;;;17.40;68.70;;;;;;5110476;28;20028;-65
2021/07/27 08:55:11;;;;;;;9.88;5.00;;;17.40;69.10;;;;;;5091006;28;20031;-57
2021/07/27 08:57:57;;;;;;;37.28;14.18;;;17.40;68.80;;;;;;5096204;28;20125;-52
2021/07/27 09:00:32;;;;;;;55.22;28.05;;;17.40;68.70;;;;;;5090392;28;20032;-59
2021/07/27 09:03:20;;;;;;;102.72;45.20;;;17.30;68.80;;;;;;5095091;28;20032;-53
2021/07/27 09:06:02;;;;;;;134.88;60.72;;;17.30;68.40;;;;;;5097117;28;20058;-63
2021/07/27 09:08:30;;;;;;;157.57;74.90;;;17.40;68.60;;;;;;5095238;28;20024;-63
2021/07/27 09:11:01;;;;;;;185.95;81.93;;;17.40;68.70;;;;;;5096018;28;20031;-63
2021/07/27 09:13:33;;;;;;;203.80;98.43;;;17.40;68.50;;;;;;5103038;28;20023;-59
2021/07/27 09:16:01;;;;;;;212.70;104.68;;;17.30;69.10;;;;;;5097306;28;20047;-63
2021/07/27 09:18:32;;;;;;;198.10;97.88;;;17.40;69.00;;;;;;5095418;28;20027;-54
2021/07/27 09:21:02;;;;;;;212.65;102.43;;;17.40;68.70;;;;;;5101438;28;20051;-63
2021/07/27 09:23:30;;;;;;;206.82;103.32;;;17.40;68.60;;;;;;5099851;28;20032;-62
2021/07/27 09:25:59;;;;;;;201.75;102.32;;;17.40;68.40;;;;;;5095132;28;20043;-55
2021/07/27 09:28:28;;;;;;;183.73;93.97;;;17.40;68.70;;;;;;5097817;28;20079;-57
2021/07/27 09:31:00;;;;;;;208.05;101.43;;;17.40;68.20;;;;;;5097624;28;20048;-61
2021/07/27 09:33:30;;;;;;;;;;;17.40;68.30;;;;;;5097843;28;20031;-57
2021/07/27 09:35:58;;;;;;;190.15;93.15;;;17.30;67.70;;;;;;5096236;28;19947;-56
2021/07/27 09:38:29;;;;;;;211.57;105.03;;;17.30;68.00;;;;;;5094100;28;20028;-57
2021/07/27 09:41:00;;;;;;;205.18;100.15;;;17.30;68.50;;;;;;5101374;28;20058;-53
2021/07/27 09:43:28;;;;;;;202.07;98.47;;;17.30;68.30;;;;;;5093107;28;20373;-51
2021/07/27 09:46:00;;;;;;;191.38;100.07;;;17.30;67.80;;;;;;5104561;28;20047;-49
2021/07/27 09:48:29;;;;;;;198.10;100.30;;;17.30;68.60;;;;;;5091212;28;20420;-52
2021/07/27 09:51:00;;;;;;;195.55;96.85;;;17.30;68.60;;;;;;5097182;28;20028;-56
2021/07/27 09:53:29;;;;;;;205.57;104.13;;;17.30;68.30;;;;;;5096888;28;20471;-58
2021/07/27 09:55:57;;;;;;;197.27;104.05;;;17.30;68.70;;;;;;5100191;28;20066;-57
2021/07/27 09:58:27;;;;;;;196.02;101.03;;;17.30;68.10;;;;;;5095289;28;20087;-66
2021/07/27 10:01:15;;;;;;;198.27;102.60;;;17.30;68.60;;;;;;5096458;28;20052;-57
2021/07/27 10:03:50;;;;;;;193.60;101.70;;;17.20;68.70;;;;;;5096561;28;20519;-59
2021/07/27 10:06:33;;;;;;;207.68;106.63;;;17.20;68.40;;;;;;5103103;28;20035;-58
2021/07/27 10:09:02;;;;;;;200.82;103.47;;;17.20;68.80;;;;;;5097505;28;20065;-58
2021/07/27 10:11:42;;;;;;;189.25;99.38;;;17.20;68.50;;;;;;5093306;28;20055;-57
2021/07/27 10:14:15;;;;;;;193.05;101.38;;;17.20;68.70;;;;;;5100400;28;20032;-57
2021/07/27 10:16:43;;;;;;;193.93;98.57;;;17.20;68.20;;;;;;5099626;28;20027;-55
2021/07/27 10:19:22;;;;;;;185.60;94.93;;;17.20;68.30;;;;;;5091919;28;20367;-58
2021/07/27 10:22:07;;;;;;;177.18;91.90;;;17.10;67.60;;;;;;5103099;28;20117;-56
2021/07/27 10:24:42;;;;;;;185.73;94.15;;;17.10;68.00;;;;;;5096404;28;20025;-60
2021/07/27 10:27:21;;;;;;;183.48;97.68;;;17.10;68.40;;;;;;5094648;28;20027;-58
2021/07/27 10:29:52;;;;;;;196.13;98.80;;;17.10;68.30;;;;;;5103437;28;20044;-62
2021/07/27 10:32:22;;;;;;;189.27;100.05;;;17.10;68.30;;;;;;5098344;28;20143;-59
2021/07/27 10:34:52;;;;;;;194.35;98.80;;;17.10;68.40;;;;;;5091383;28;20030;-59
2021/07/27 10:37:19;;;;;;;175.57;90.60;;;17.00;68.30;;;;;;5093322;28;20436;-62
2021/07/27 10:39:55;;;;;;;189.63;98.28;;;17.00;67.80;;;;;;5093187;28;20530;-61
2021/07/27 10:42:24;;;;;;;174.52;91.93;;;17.00;68.50;;;;;;5093250;28;20040;-60
2021/07/27 10:44:55;;;;;;;168.07;84.97;;;16.90;68.40;;;;;;5093007;28;20099;-63
2021/07/27 10:47:26;;;;;;;177.95;92.10;;;16.90;68.10;;;;;;5092902;28;20030;-63
2021/07/27 10:50:32;;;;;;;190.73;99.70;;;16.90;68.40;;;;;;5092595;28;20459;-61
2021/07/27 10:53:23;;;;;;;185.10;96.10;;;16.90;68.70;;;;;;5092505;28;20036;-63
2021/07/27 10:55:53;;;;;;;179.25;93.28;;;16.80;68.00;;;;;;5092139;28;20142;-58
2021/07/27 10:58:23;;;;;;;173.25;89.30;;;16.80;68.80;;;;;;5101061;28;20494;-56
2021/07/27 11:00:51;;;;;;;189.07;99.22;;;16.80;68.80;;;;;;5092088;28;20096;-57
2021/07/27 11:03:29;;;;;;;177.15;94.10;;;16.80;69.10;;;;;;5069382;28;20054;-55
2021/07/27 11:06:06;;;;;;;173.98;90.97;;;16.80;68.80;;;;;;5108194;28;20028;-61
2021/07/27 11:08:36;;;;;;;163.82;90.68;;;16.80;68.80;;;;;;5102936;28;20035;-61
2021/07/27 11:11:10;;;;;;;160.20;86.20;;;16.70;68.90;;;;;;5100804;28;20088;-60
2021/07/27 11:13:39;;;;;;;169.38;89.50;;;16.70;69.00;;;;;;5100747;28;20027;-55
2021/07/27 11:16:06;;;;;;;165.10;89.38;;;16.70;69.00;;;;;;5102494;28;20103;-60
2021/07/27 11:18:54;;;;;;;164.25;87.53;;;16.70;69.00;;;;;;5099524;28;20024;-60
2021/07/27 11:21:21;;;;;;;174.77;91.50;;;16.70;69.00;;;;;;5094369;28;20129;-59
2021/07/27 11:23:49;;;;;;;155.88;86.10;;;16.70;69.20;;;;;;5098143;28;20036;-61
2021/07/27 11:26:16;;;;;;;161.82;86.47;;;16.70;68.90;;;;;;5104166;28;20055;-61
2021/07/27 11:28:44;;;;;;;162.05;87.82;;;16.60;69.00;;;;;;5099449;28;20529;-61
2021/07/27 11:31:21;;;;;;;151.32;84.47;;;16.70;69.10;;;;;;5098447;28;20076;-55
2021/07/27 11:33:53;;;;;;;153.73;82.10;;;16.70;69.00;;;;;;5099921;28;20020;-61
2021/07/27 11:36:27;;;;;;;149.50;81.10;;;16.70;68.80;;;;;;5101209;28;20159;-62
2021/07/27 11:39:08;;;;;;;147.63;78.47;;;16.70;68.80;;;;;;5100043;28;20051;-52
2021/07/27 11:41:35;;;;;;;145.73;78.47;;;16.70;68.90;;;;;;5094047;28;20043;-57
2021/07/27 11:44:03;;;;;;;142.27;77.47;;;16.70;68.90;;;;;;5095262;28;20232;-57
2021/07/27 11:46:38;;;;;;;139.20;72.88;;;16.70;68.80;;;;;;5101947;28;20036;-55
2021/07/27 11:49:10;;;;;;;138.55;76.72;;;16.70;68.70;;;;;;5094921;28;20059;-58
2021/07/27 11:51:38;;;;;;;130.32;69.93;;;16.70;68.80;;;;;;5094617;28;20035;-58
2021/07/27 11:54:05;;;;;;;130.80;73.85;;;16.70;68.80;;;;;;5098131;28;20031;-55
2021/07/27 11:56:33;;;;;;;124.70;71.05;;;16.70;68.80;;;;;;5102721;28;20028;-59
2021/07/27 11:59:06;;;;;;;127.68;71.35;;;16.70;68.60;;;;;;5103558;28;20035;-48
2021/07/27 12:01:42;;;;;;;;;;;16.70;68.50;;;;;;5098712;28;20043;-66
2021/07/27 12:04:10;;;;;;;122.43;65.40;;;16.70;68.60;;;;;;5099127;28;19908;-62
2021/07/27 12:06:48;;;;;;;119.65;67.20;;;16.60;68.30;;;;;;5097907;28;20093;-62
2021/07/27 12:09:16;;;;;;;125.55;68.70;;;16.60;68.50;;;;;;5099590;28;20032;-60
2021/07/27 12:11:43;;;;;;;117.32;65.13;;;16.60;68.70;;;;;;5103007;28;20118;-61
2021/07/27 12:14:11;;;;;;;131.32;69.15;;;16.60;68.40;;;;;;5099878;28;20080;-60
2021/07/27 12:16:44;;;;;;;111.50;61.80;;;16.60;68.70;;;;;;5079943;28;20039;-60
2021/07/27 12:19:11;;;;;;;122.07;64.43;;;16.60;68.50;;;;;;5084753;28;20043;-60
2021/07/27 12:21:39;;;;;;;116.93;64.60;;;16.60;68.50;;;;;;5095821;28;20047;-55
2021/07/27 12:24:10;;;;;;;118.15;63.30;;;16.60;68.30;;;;;;5101193;28;20092;-58
2021/07/27 12:26:41;;;;;;;105.03;58.28;;;16.60;68.70;;;;;;5080114;28;20084;-53
2021/07/27 12:29:09;;;;;;;111.18;60.72;;;16.60;68.50;;;;;;5101278;28;20394;-60
2021/07/27 12:31:36;;;;;;;109.13;61.25;;;16.60;68.60;;;;;;5098079;28;20825;-52
2021/07/27 12:34:04;;;;;;;103.72;59.83;;;16.60;68.40;;;;;;5099506;28;20084;-50
2021/07/27 12:36:32;;;;;;;106.55;58.67;;;16.60;68.60;;;;;;5102951;28;20042;-60
2021/07/27 12:39:00;;;;;;;107.32;57.70;;;16.50;68.40;;;;;;5101307;28;20435;-59
2021/07/27 12:41:30;;;;;;;104.97;58.13;;;16.60;68.60;;;;;;5103681;28;20039;-55
2021/07/27 12:43:57;;;;;;;104.18;57.95;;;16.50;68.80;;;;;;5102897;28;20070;-56
2021/07/27 12:46:25;;;;;;;97.25;54.03;;;16.50;68.40;;;;;;5099757;28;20073;-60
2021/07/27 12:48:53;;;;;;;92.38;52.88;;;16.50;68.60;;;;;;5102701;28;20031;-58
2021/07/27 12:51:21;;;;;;;93.95;53.00;;;16.50;68.70;;;;;;5099516;28;20143;-59
2021/07/27 12:53:48;;;;;;;93.63;51.75;;;16.50;68.60;;;;;;5105636;28;20019;-60
2021/07/27 12:56:16;;;;;;;95.68;53.03;;;16.50;68.50;;;;;;5090577;28;20036;-58
2021/07/27 12:58:43;;;;;;;90.90;52.92;;;16.50;68.90;;;;;;5090655;28;20024;-63
2021/07/27 13:01:11;;;;;;;84.70;47.42;;;16.50;69.00;;;;;;5090649;28;20043;-61
2021/07/27 13:03:38;;;;;;;89.72;51.58;;;16.40;68.90;;;;;;5090144;28;20028;-58
2021/07/27 13:06:08;;;;;;;88.03;49.35;;;16.40;69.00;;;;;;5072586;28;20089;-60
2021/07/27 13:08:36;;;;;;;85.80;49.00;;;16.40;68.90;;;;;;5090446;28;20036;-60
2021/07/27 13:11:03;;;;;;;88.88;50.25;;;16.40;68.60;;;;;;5090153;28;20028;-59